Time;durP1;ratioP1;P1;durP2;ratioP2;P2;SDS_P1;SDS_P2;PMS_P1;PMS_P2;Temp;Humidity;BMP_temperature;BMP_pressure;BME280_temperature;BME280_humidity;BME280_pressure;Samples;Min_cycle;Max_cycle;Signal;HPM_P1;HPM_P2
2023/07/22 00:00:16;;;;;;;4.03;2.10;;;22.90;59.90;;;;;;5011515;28;20037;-50
2023/07/22 00:02:43;;;;;;;3.65;2.22;;;22.90;59.90;;;;;;5009944;28;20037;-51
2023/07/22 00:05:10;;;;;;;4.43;2.40;;;22.90;59.80;;;;;;5010010;28;20397;-54
2023/07/22 00:07:36;;;;;;;5.47;2.20;;;22.90;59.80;;;;;;5011056;28;20469;-53
2023/07/22 00:10:02;;;;;;;2.38;1.98;;;22.90;59.70;;;;;;5008975;28;20026;-51
2023/07/22 00:12:28;;;;;;;4.32;2.30;;;22.90;59.70;;;;;;5010579;28;20497;-49
2023/07/22 00:14:54;;;;;;;6.20;2.50;;;22.90;59.60;;;;;;5011688;28;20033;-50
2023/07/22 00:17:20;;;;;;;4.60;2.08;;;22.90;59.70;;;;;;5010293;28;20022;-48
2023/07/22 00:19:47;;;;;;;3.88;2.20;;;22.90;59.60;;;;;;5010254;28;20029;-51
2023/07/22 00:22:15;;;;;;;3.25;2.08;;;22.90;59.60;;;;;;5006365;28;20082;-55
2023/07/22 00:24:41;;;;;;;4.30;2.40;;;22.90;59.50;;;;;;5010137;28;20026;-51
2023/07/22 00:27:08;;;;;;;3.80;2.13;;;22.90;59.50;;;;;;5000244;28;20401;-51
2023/07/22 00:29:37;;;;;;;4.20;2.20;;;22.90;59.40;;;;;;5007754;28;20030;-49
2023/07/22 00:32:07;;;;;;;4.10;2.65;;;22.90;59.60;;;;;;5008918;28;20034;-51
2023/07/22 00:34:32;;;;;;;4.70;2.30;;;22.90;59.60;;;;;;5010366;28;20018;-49
2023/07/22 00:36:58;;;;;;;5.75;2.33;;;22.90;59.50;;;;;;5011185;28;20088;-49
2023/07/22 00:39:24;;;;;;;4.95;2.30;;;22.90;59.50;;;;;;5010906;28;20536;-48
2023/07/22 00:41:50;;;;;;;3.58;2.20;;;22.90;59.50;;;;;;5009125;28;20030;-49
2023/07/22 00:44:16;;;;;;;4.50;2.25;;;22.90;59.50;;;;;;5010163;28;20125;-48
2023/07/22 00:46:42;;;;;;;9.02;2.63;;;22.90;59.50;;;;;;5010478;28;20026;-48
2023/07/22 00:49:08;;;;;;;4.10;2.30;;;22.90;59.50;;;;;;5005880;28;20018;-48
2023/07/22 00:51:34;;;;;;;4.43;2.35;;;22.90;59.60;;;;;;4999465;28;20018;-50
2023/07/22 00:54:00;;;;;;;6.78;2.35;;;22.90;59.50;;;;;;5003308;28;20034;-49
2023/07/22 00:56:26;;;;;;;3.95;2.00;;;22.90;59.50;;;;;;5006424;28;20486;-48
2023/07/22 00:58:52;;;;;;;3.33;2.05;;;22.90;59.50;;;;;;5009933;28;20022;-50
2023/07/22 01:01:18;;;;;;;3.00;2.15;;;22.90;59.50;;;;;;5009971;28;20040;-48
2023/07/22 01:03:46;;;;;;;5.45;2.35;;;22.90;59.50;;;;;;5011242;28;20105;-48
2023/07/22 01:06:14;;;;;;;2.95;2.10;;;22.90;59.50;;;;;;5008286;28;20034;-49
2023/07/22 01:08:40;;;;;;;3.47;2.15;;;22.90;59.50;;;;;;5011552;28;20037;-49
2023/07/22 01:11:06;;;;;;;3.58;2.38;;;22.90;59.50;;;;;;5010694;28;20052;-49
2023/07/22 01:13:31;;;;;;;2.58;2.10;;;22.90;59.60;;;;;;5011030;28;20022;-48
2023/07/22 01:15:58;;;;;;;4.07;2.10;;;22.90;59.60;;;;;;5008164;28;20018;-48
2023/07/22 01:18:24;;;;;;;3.70;1.92;;;22.90;59.70;;;;;;5009573;28;20481;-48
2023/07/22 01:20:50;;;;;;;3.13;2.10;;;22.90;59.70;;;;;;5009171;28;20025;-50
2023/07/22 01:23:16;;;;;;;3.03;2.13;;;22.90;59.70;;;;;;4999266;28;20061;-51
2023/07/22 01:25:43;;;;;;;3.28;1.70;;;22.90;59.70;;;;;;5010395;28;20061;-53
2023/07/22 01:28:10;;;;;;;4.25;1.83;;;22.90;59.70;;;;;;5006021;28;20049;-55
2023/07/22 01:30:36;;;;;;;2.05;1.70;;;22.80;59.70;;;;;;5010668;28;20049;-54
2023/07/22 01:33:02;;;;;;;6.15;2.00;;;22.90;59.80;;;;;;5002419;28;20030;-55
2023/07/22 01:35:28;;;;;;;3.25;2.08;;;22.80;59.70;;;;;;5009424;28;20030;-51
2023/07/22 01:37:54;;;;;;;3.95;2.10;;;22.90;59.70;;;;;;5009479;28;20109;-53
2023/07/22 01:40:20;;;;;;;5.03;2.10;;;22.80;59.70;;;;;;5009659;28;20030;-54
2023/07/22 01:42:46;;;;;;;4.40;1.95;;;22.80;59.80;;;;;;5005858;28;20553;-53
2023/07/22 01:45:12;;;;;;;6.30;2.10;;;22.80;59.80;;;;;;5009276;28;20101;-55
2023/07/22 01:47:40;;;;;;;5.05;2.03;;;22.80;59.80;;;;;;5008004;28;20504;-50
2023/07/22 01:50:06;;;;;;;4.25;1.95;;;22.80;59.80;;;;;;5006414;28;20026;-52
2023/07/22 01:52:32;;;;;;;2.60;1.92;;;22.80;59.70;;;;;;5007119;28;20084;-54
2023/07/22 01:54:58;;;;;;;4.10;1.90;;;22.80;59.80;;;;;;5006492;28;20444;-53
2023/07/22 01:57:24;;;;;;;7.78;2.10;;;22.80;59.80;;;;;;5007498;28;20459;-52
2023/07/22 01:59:50;;;;;;;5.65;1.58;;;22.80;59.90;;;;;;5009326;28;20064;-53
2023/07/22 02:02:16;;;;;;;3.53;2.10;;;22.80;59.90;;;;;;5008821;28;20053;-52
2023/07/22 02:04:42;;;;;;;5.70;2.03;;;22.80;59.80;;;;;;5011117;28;20493;-50
2023/07/22 02:07:08;;;;;;;3.85;1.92;;;22.80;59.90;;;;;;5010180;28;20099;-53
2023/07/22 02:09:34;;;;;;;6.28;1.60;;;22.80;59.80;;;;;;5007559;28;20029;-48
2023/07/22 02:12:00;;;;;;;5.88;1.90;;;22.80;59.90;;;;;;5008462;28;20121;-49
2023/07/22 02:14:26;;;;;;;3.13;1.70;;;22.80;60.40;;;;;;5011035;28;20644;-55
2023/07/22 02:16:52;;;;;;;2.85;2.05;;;22.80;59.80;;;;;;5010701;28;20101;-52
2023/07/22 02:19:18;;;;;;;3.35;2.05;;;22.80;59.80;;;;;;5013290;28;20413;-50
2023/07/22 02:21:44;;;;;;;4.20;1.98;;;22.80;59.90;;;;;;5008525;28;20030;-49
2023/07/22 02:24:10;;;;;;;2.83;1.85;;;22.80;59.80;;;;;;5007341;28;20478;-52
2023/07/22 02:26:36;;;;;;;6.00;2.15;;;22.80;59.80;;;;;;5013788;28;20089;-54
2023/07/22 02:29:02;;;;;;;2.67;1.90;;;22.80;59.80;;;;;;5002598;28;20026;-52
2023/07/22 02:31:28;;;;;;;4.57;1.90;;;22.80;59.70;;;;;;5011402;28;20026;-48
2023/07/22 02:33:54;;;;;;;6.15;1.98;;;22.80;59.70;;;;;;5013455;28;20183;-51
2023/07/22 02:36:20;;;;;;;6.38;2.10;;;22.80;59.50;;;;;;5010629;28;20445;-52
2023/07/22 02:38:46;;;;;;;3.90;2.08;;;22.80;59.40;;;;;;5013474;28;20025;-49
2023/07/22 02:41:12;;;;;;;5.00;1.80;;;22.80;59.70;;;;;;5013189;28;20297;-49
2023/07/22 02:43:40;;;;;;;5.70;2.13;;;22.80;59.40;;;;;;5013022;28;20022;-50
2023/07/22 02:46:08;;;;;;;3.28;1.75;;;22.80;59.40;;;;;;5013241;28;20096;-52
2023/07/22 02:48:34;;;;;;;5.35;1.52;;;22.90;59.60;;;;;;5001973;28;20037;-50
2023/07/22 02:51:18;;;;;;;6.10;1.80;;;22.80;59.50;;;;;;5012501;28;20088;-55
2023/07/22 02:53:46;;;;;;;5.70;2.25;;;22.90;59.60;;;;;;5005243;28;20038;-56
2023/07/22 02:56:12;;;;;;;4.18;1.48;;;22.80;59.40;;;;;;5011914;28;20560;-49
2023/07/22 02:58:39;;;;;;;3.75;1.90;;;22.90;59.40;;;;;;5013783;28;20476;-55
2023/07/22 03:01:05;;;;;;;2.92;1.63;;;22.90;59.30;;;;;;5013205;28;20478;-51
2023/07/22 03:03:33;;;;;;;8.05;1.98;;;22.80;59.20;;;;;;5009817;28;20299;-54
2023/07/22 03:06:00;;;;;;;3.53;1.77;;;22.80;59.90;;;;;;5008323;28;20057;-55
2023/07/22 03:08:26;;;;;;;3.40;1.80;;;22.80;59.30;;;;;;5004096;28;20041;-55
2023/07/22 03:10:52;;;;;;;4.25;1.60;;;22.80;59.20;;;;;;5011442;28;20457;-55
2023/07/22 03:13:18;;;;;;;5.43;1.73;;;22.80;59.30;;;;;;5005495;28;20036;-55
2023/07/22 03:15:44;;;;;;;5.80;1.90;;;22.80;59.10;;;;;;5012540;28;20113;-55
2023/07/22 03:18:10;;;;;;;3.33;1.70;;;22.80;59.20;;;;;;5011911;28;20108;-54
2023/07/22 03:20:37;;;;;;;2.30;1.50;;;22.80;59.10;;;;;;5012379;28;20040;-54
2023/07/22 03:23:07;;;;;;;5.03;2.08;;;22.80;59.10;;;;;;5011249;28;20138;-51
2023/07/22 03:25:34;;;;;;;4.63;2.00;;;22.80;59.10;;;;;;5007589;28;20026;-55
2023/07/22 03:28:03;;;;;;;3.47;1.50;;;22.80;59.00;;;;;;5008527;28;20396;-52
2023/07/22 03:30:29;;;;;;;3.65;1.95;;;22.80;59.70;;;;;;5005763;28;20088;-54
2023/07/22 03:32:55;;;;;;;5.95;1.38;;;22.80;59.10;;;;;;5010800;28;20040;-55
2023/07/22 03:35:21;;;;;;;6.00;1.75;;;22.80;59.10;;;;;;5012136;28;20101;-50
2023/07/22 03:37:47;;;;;;;4.47;1.58;;;22.80;59.10;;;;;;5012319;28;20029;-50
2023/07/22 03:40:20;;;;;;;6.03;1.60;;;22.80;59.00;;;;;;5011553;28;20083;-55
2023/07/22 03:42:50;;;;;;;5.85;1.42;;;22.80;59.00;;;;;;5011087;28;20520;-50
2023/07/22 03:45:17;;;;;;;4.80;1.80;;;22.80;59.00;;;;;;5012000;28;20480;-51
2023/07/22 03:47:45;;;;;;;2.95;1.40;;;22.80;59.10;;;;;;5006965;28;20497;-53
2023/07/22 03:50:11;;;;;;;3.38;1.70;;;22.80;59.10;;;;;;5010587;28;20037;-55
2023/07/22 03:52:37;;;;;;;2.33;1.48;;;22.80;59.10;;;;;;5011631;28;20112;-49
2023/07/22 03:55:03;;;;;;;3.20;1.60;;;22.70;59.10;;;;;;5007591;28;20100;-53
2023/07/22 03:57:30;;;;;;;5.22;1.55;;;22.70;59.10;;;;;;5011292;28;20033;-48
2023/07/22 03:59:55;;;;;;;6.78;1.63;;;22.70;59.10;;;;;;5004500;28;20026;-49
2023/07/22 04:02:22;;;;;;;2.60;1.65;;;22.70;59.20;;;;;;5011294;28;20053;-48
2023/07/22 04:04:48;;;;;;;2.85;1.50;;;22.70;59.00;;;;;;5011773;28;20038;-51
2023/07/22 04:07:13;;;;;;;3.08;1.60;;;22.70;59.10;;;;;;5011016;28;20037;-52
2023/07/22 04:09:40;;;;;;;1.80;1.30;;;22.70;59.10;;;;;;5010541;28;20099;-53
2023/07/22 04:12:07;;;;;;;2.60;1.60;;;22.70;59.00;;;;;;5037741;23;20042;-43
2023/07/22 04:14:33;;;;;;;3.08;1.50;;;22.70;59.00;;;;;;5022919;28;20022;-43
2023/07/22 04:16:58;;;;;;;4.90;1.60;;;22.70;59.00;;;;;;5028617;28;20025;-43
2023/07/22 04:19:24;;;;;;;5.05;1.42;;;22.70;59.00;;;;;;5024185;28;20025;-43
2023/07/22 04:21:50;;;;;;;3.00;1.38;;;22.70;59.00;;;;;;5016530;28;20036;-44
2023/07/22 04:24:16;;;;;;;4.13;1.42;;;22.70;58.90;;;;;;5011082;28;20433;-43
2023/07/22 04:26:43;;;;;;;4.25;1.70;;;22.70;59.00;;;;;;5005577;28;20026;-43
2023/07/22 04:29:09;;;;;;;2.97;2.00;;;22.70;58.90;;;;;;5012135;28;20080;-43
2023/07/22 04:31:37;;;;;;;4.80;1.90;;;22.70;58.90;;;;;;5009197;28;20124;-44
2023/07/22 04:34:02;;;;;;;4.75;1.92;;;22.70;58.80;;;;;;5005790;28;20521;-44
2023/07/22 04:36:28;;;;;;;4.63;1.70;;;22.70;59.40;;;;;;4980476;28;20047;-48
2023/07/22 04:38:54;;;;;;;6.88;1.70;;;22.70;58.80;;;;;;4999495;28;20097;-49
2023/07/22 04:41:21;;;;;;;5.55;1.88;;;22.70;58.80;;;;;;5004647;28;20352;-44
2023/07/22 04:43:47;;;;;;;4.68;2.10;;;22.70;58.70;;;;;;5011341;28;20025;-44
2023/07/22 04:46:13;;;;;;;1.83;1.45;;;22.70;58.80;;;;;;4995671;28;20034;-44
2023/07/22 04:48:39;;;;;;;3.00;1.70;;;22.70;58.70;;;;;;5007750;28;20030;-46
2023/07/22 04:51:05;;;;;;;3.70;1.77;;;22.70;58.70;;;;;;4995450;28;20114;-50
2023/07/22 04:53:31;;;;;;;5.07;2.03;;;22.70;58.70;;;;;;5009431;28;20116;-43
2023/07/22 04:55:57;;;;;;;4.45;2.10;;;22.70;59.30;;;;;;5010825;28;20083;-43
2023/07/22 04:58:24;;;;;;;3.88;2.10;;;22.70;58.60;;;;;;5011433;28;20125;-43
2023/07/22 05:00:49;;;;;;;5.05;2.03;;;22.70;58.70;;;;;;5011459;28;20494;-44
2023/07/22 05:03:15;;;;;;;2.90;2.00;;;22.70;58.70;;;;;;4995935;28;20018;-43
2023/07/22 05:05:41;;;;;;;3.92;2.00;;;22.70;58.70;;;;;;5005566;28;20108;-44
2023/07/22 05:08:08;;;;;;;5.85;1.70;;;22.70;58.60;;;;;;5000925;28;20025;-43
2023/07/22 05:10:34;;;;;;;6.35;2.50;;;22.70;59.00;;;;;;4999097;28;20026;-43
2023/07/22 05:13:00;;;;;;;5.82;2.13;;;22.70;58.50;;;;;;5003874;28;20021;-44
2023/07/22 05:15:25;;;;;;;6.10;2.42;;;22.70;58.50;;;;;;5011357;28;20045;-43
2023/07/22 05:17:51;;;;;;;3.45;2.30;;;22.80;58.40;;;;;;5010809;28;20022;-44
2023/07/22 05:20:17;;;;;;;6.95;2.38;;;22.80;58.40;;;;;;4994109;28;20126;-43
2023/07/22 05:22:43;;;;;;;4.28;2.55;;;22.80;58.40;;;;;;5008072;28;20116;-45
2023/07/22 05:25:09;;;;;;;4.28;2.13;;;22.80;58.40;;;;;;5010200;28;20096;-43
2023/07/22 05:27:36;;;;;;;5.80;1.90;;;22.80;58.40;;;;;;5000168;28;20030;-44
2023/07/22 05:30:02;;;;;;;4.65;2.28;;;22.80;58.40;;;;;;5011318;28;20565;-43
2023/07/22 05:32:31;;;;;;;4.22;1.98;;;22.80;58.50;;;;;;5009533;28;20040;-43
2023/07/22 05:34:57;;;;;;;5.05;2.22;;;22.70;58.40;;;;;;5006621;28;20030;-45
2023/07/22 05:37:25;;;;;;;8.07;2.40;;;22.70;58.40;;;;;;5011361;28;20033;-44
2023/07/22 05:39:51;;;;;;;4.57;2.67;;;22.70;58.40;;;;;;5011325;28;20457;-44
2023/07/22 05:42:18;;;;;;;4.55;2.08;;;22.80;58.40;;;;;;5005292;28;20112;-43
2023/07/22 05:44:44;;;;;;;5.57;2.30;;;22.80;58.40;;;;;;5005433;28;20386;-44
2023/07/22 05:47:10;;;;;;;5.75;2.78;;;22.80;58.40;;;;;;4999111;28;20025;-43
2023/07/22 05:49:35;;;;;;;7.43;2.38;;;22.80;58.40;;;;;;4996422;28;20026;-44
2023/07/22 05:52:01;;;;;;;3.25;2.17;;;22.80;58.40;;;;;;5002225;28;20030;-46
2023/07/22 05:54:27;;;;;;;6.30;2.40;;;22.80;58.40;;;;;;5013973;28;20521;-51
2023/07/22 05:56:53;;;;;;;5.07;2.47;;;22.70;58.40;;;;;;5008662;28;20490;-44
2023/07/22 05:59:19;;;;;;;6.03;3.15;;;22.80;58.50;;;;;;5000953;28;20084;-50
2023/07/22 06:01:44;;;;;;;5.15;2.30;;;22.80;58.50;;;;;;5014357;28;20025;-46
2023/07/22 06:04:10;;;;;;;12.15;2.30;;;22.80;58.70;;;;;;5006346;28;20449;-45
2023/07/22 06:06:36;;;;;;;6.80;2.50;;;22.80;58.80;;;;;;5002085;28;20034;-47
2023/07/22 06:09:02;;;;;;;10.30;2.35;;;22.80;58.80;;;;;;5001100;28;20026;-48
2023/07/22 06:11:28;;;;;;;8.00;3.05;;;22.80;59.00;;;;;;5003199;28;20033;-50
2023/07/22 06:13:54;;;;;;;6.45;2.78;;;22.80;59.50;;;;;;5014571;28;20034;-46
2023/07/22 06:16:20;;;;;;;4.22;2.58;;;22.90;59.60;;;;;;5010628;28;20025;-45
2023/07/22 06:18:46;;;;;;;5.65;2.35;;;22.90;59.40;;;;;;5014489;28;20536;-47
2023/07/22 06:21:12;;;;;;;6.93;2.50;;;22.90;59.60;;;;;;5014199;28;20084;-48
2023/07/22 06:23:37;;;;;;;7.63;2.40;;;22.90;60.00;;;;;;5012587;28;20026;-48
2023/07/22 06:26:03;;;;;;;5.10;2.65;;;22.90;59.80;;;;;;5014299;28;20030;-50
2023/07/22 06:28:29;;;;;;;9.00;2.55;;;22.90;60.00;;;;;;5003339;28;20030;-43
2023/07/22 06:30:55;;;;;;;14.43;3.75;;;23.00;61.90;;;;;;4995538;28;20084;-48
2023/07/22 06:33:21;;;;;;;7.00;3.20;;;23.10;61.50;;;;;;5012411;28;20045;-51
2023/07/22 06:35:47;;;;;;;9.23;3.55;;;23.10;63.20;;;;;;5011339;28;20026;-49
2023/07/22 06:38:13;;;;;;;9.98;3.13;;;23.20;62.40;;;;;;4997921;28;20101;-47
2023/07/22 06:40:39;;;;;;;7.95;3.45;;;23.20;63.00;;;;;;5014206;28;20032;-48
2023/07/22 06:43:05;;;;;;;8.35;3.15;;;23.30;62.30;;;;;;5013925;28;20117;-51
2023/07/22 06:45:32;;;;;;;9.25;3.38;;;23.30;63.30;;;;;;5014133;28;20437;-45
2023/07/22 06:47:58;;;;;;;9.30;3.88;;;23.30;63.20;;;;;;5014103;28;20030;-47
2023/07/22 06:50:24;;;;;;;5.55;3.22;;;23.20;63.30;;;;;;5010894;28;20026;-46
2023/07/22 06:52:50;;;;;;;10.07;3.00;;;23.20;63.10;;;;;;4999601;28;20129;-48
2023/07/22 06:55:16;;;;;;;12.15;3.30;;;23.20;63.40;;;;;;5006088;28;20113;-45
2023/07/22 06:57:42;;;;;;;6.40;3.10;;;23.20;63.00;;;;;;5003599;28;20045;-43
2023/07/22 07:00:09;;;;;;;7.57;2.90;;;23.20;63.60;;;;;;5007696;28;20025;-48
2023/07/22 07:02:36;;;;;;;9.70;3.42;;;23.20;62.80;;;;;;5010401;28;20033;-49
2023/07/22 07:05:02;;;;;;;8.27;3.25;;;23.10;63.20;;;;;;5010802;28;20069;-43
2023/07/22 07:07:28;;;;;;;5.82;2.67;;;23.10;62.50;;;;;;5002823;28;20462;-44
2023/07/22 07:09:54;;;;;;;7.97;3.00;;;23.10;62.50;;;;;;5010019;28;20053;-45
2023/07/22 07:12:19;;;;;;;8.20;3.10;;;23.20;65.70;;;;;;5010898;28;20125;-42
2023/07/22 07:14:45;;;;;;;16.90;3.53;;;23.20;66.20;;;;;;5007349;28;20486;-42
2023/07/22 07:17:11;;;;;;;11.45;3.78;;;23.20;66.10;;;;;;5011236;28;20034;-45
2023/07/22 07:19:37;;;;;;;14.13;3.50;;;23.20;65.90;;;;;;5010267;28;20026;-42
2023/07/22 07:22:03;;;;;;;15.20;4.40;;;23.20;63.50;;;;;;5002485;28;20025;-44
2023/07/22 07:24:28;;;;;;;11.63;3.35;;;23.20;65.30;;;;;;5001974;28;20109;-44
2023/07/22 07:26:54;;;;;;;11.25;3.45;;;23.20;65.50;;;;;;5010469;28;20124;-43
2023/07/22 07:29:20;;;;;;;9.90;3.53;;;23.20;66.70;;;;;;4993258;28;20026;-49
2023/07/22 07:31:46;;;;;;;9.32;3.25;;;23.20;63.50;;;;;;5007748;28;20025;-44
2023/07/22 07:34:12;;;;;;;8.65;3.58;;;23.20;63.80;;;;;;5010845;28;20030;-44
2023/07/22 07:36:37;;;;;;;7.32;3.17;;;23.20;63.70;;;;;;4998520;28;20022;-43
2023/07/22 07:39:03;;;;;;;21.35;5.15;;;23.20;64.00;;;;;;4998270;28;20030;-45
2023/07/22 07:41:29;;;;;;;22.10;5.85;;;23.20;65.00;;;;;;5009590;28;20502;-43
2023/07/22 07:43:55;;;;;;;19.00;4.82;;;23.20;65.90;;;;;;4995139;28;20026;-45
2023/07/22 07:46:28;;;;;;;22.38;5.07;;;23.30;65.20;;;;;;5003366;28;20410;-43
2023/07/22 07:48:56;;;;;;;16.42;5.18;;;23.20;65.10;;;;;;5007870;28;20105;-42
2023/07/22 07:51:26;;;;;;;14.13;4.60;;;23.20;64.80;;;;;;5009771;28;20030;-44
2023/07/22 07:53:53;;;;;;;14.63;4.63;;;23.20;64.60;;;;;;5012634;28;20030;-44
2023/07/22 07:56:20;;;;;;;23.17;4.55;;;23.20;63.70;;;;;;5011845;28;20026;-43
2023/07/22 07:58:47;;;;;;;12.43;4.40;;;23.10;62.30;;;;;;5012501;28;20045;-43
2023/07/22 08:01:14;;;;;;;10.82;4.07;;;23.00;59.50;;;;;;5012435;28;20539;-50
2023/07/22 08:03:41;;;;;;;18.02;4.95;;;22.60;57.10;;;;;;5003419;28;20037;-49
2023/07/22 08:06:07;;;;;;;18.17;3.92;;;22.50;57.20;;;;;;5006950;28;20109;-47
2023/07/22 08:08:34;;;;;;;12.48;4.20;;;22.50;57.70;;;;;;5003342;28;20026;-44
2023/07/22 08:11:02;;;;;;;8.98;4.28;;;22.60;58.30;;;;;;5011490;28;20512;-46
2023/07/22 08:13:30;;;;;;;8.35;4.18;;;22.60;57.60;;;;;;5009810;28;20081;-43
2023/07/22 08:15:57;;;;;;;13.90;4.40;;;22.60;57.50;;;;;;5011368;28;20026;-44
2023/07/22 08:18:23;;;;;;;12.80;3.95;;;22.70;57.90;;;;;;5003574;28;20130;-46
2023/07/22 08:20:52;;;;;;;10.13;4.10;;;22.70;57.30;;;;;;5008683;28;20069;-44
2023/07/22 08:23:18;;;;;;;10.00;4.10;;;22.60;57.00;;;;;;5011600;28;20021;-43
2023/07/22 08:25:44;;;;;;;11.15;3.80;;;22.60;57.20;;;;;;5011921;28;20026;-43
2023/07/22 08:28:09;;;;;;;12.65;4.10;;;22.60;56.00;;;;;;5003637;28;20564;-47
2023/07/22 08:30:35;;;;;;;10.60;4.22;;;22.60;55.90;;;;;;4992310;28;20487;-43
2023/07/22 08:33:02;;;;;;;10.00;4.07;;;22.70;55.60;;;;;;4998671;28;20493;-43
2023/07/22 08:35:27;;;;;;;15.35;4.22;;;22.70;55.30;;;;;;5011618;28;20018;-46
2023/07/22 08:37:53;;;;;;;20.58;4.68;;;22.70;56.30;;;;;;5011842;28;20556;-44
2023/07/22 08:40:20;;;;;;;21.10;5.05;;;22.70;56.50;;;;;;4999386;28;20493;-47
2023/07/22 08:42:47;;;;;;;40.03;5.47;;;22.70;57.30;;;;;;5005392;28;20508;-46
2023/07/22 08:45:14;;;;;;;27.42;4.55;;;22.80;57.70;;;;;;5003152;28;20042;-43
2023/07/22 08:47:46;;;;;;;25.27;4.40;;;22.80;58.60;;;;;;4992272;28;20498;-43
2023/07/22 08:50:19;;;;;;;17.85;4.13;;;22.80;58.90;;;;;;4992314;28;20084;-44
2023/07/22 08:52:46;;;;;;;18.67;4.15;;;22.80;58.00;;;;;;4991980;28;20100;-43
2023/07/22 08:55:13;;;;;;;23.92;5.28;;;22.80;57.70;;;;;;4992344;28;20062;-43
2023/07/22 08:57:39;;;;;;;13.05;4.88;;;22.70;59.80;;;;;;4992392;28;20383;-44
2023/07/22 09:00:06;;;;;;;13.15;5.20;;;22.80;59.20;;;;;;4992193;28;20026;-46
2023/07/22 09:02:36;;;;;;;25.13;5.20;;;22.80;59.30;;;;;;4991854;28;20481;-43
2023/07/22 09:05:02;;;;;;;14.90;5.00;;;22.80;59.70;;;;;;4992171;28;20033;-44
2023/07/22 09:07:29;;;;;;;13.30;5.43;;;22.80;59.70;;;;;;4992168;28;20084;-43
2023/07/22 09:09:57;;;;;;;13.23;4.78;;;22.80;59.60;;;;;;4992324;28;20057;-43
2023/07/22 09:12:23;;;;;;;17.13;5.72;;;22.80;60.00;;;;;;4991374;28;20030;-43
2023/07/22 09:14:50;;;;;;;16.67;5.13;;;22.80;58.80;;;;;;4992200;28;20108;-44
2023/07/22 09:17:16;;;;;;;14.13;4.72;;;22.80;59.00;;;;;;4992236;28;20045;-43
2023/07/22 09:19:42;;;;;;;14.32;5.40;;;22.80;59.20;;;;;;4992186;28;20030;-43
2023/07/22 09:22:08;;;;;;;16.33;5.60;;;22.80;57.30;;;;;;4991760;28;20022;-44
2023/07/22 09:24:34;;;;;;;18.15;5.78;;;22.80;59.30;;;;;;4992457;28;20022;-43
2023/07/22 09:27:00;;;;;;;18.23;6.82;;;22.80;58.90;;;;;;4995925;28;20029;-43
2023/07/22 09:29:39;;;;;;;20.30;6.30;;;22.80;59.20;;;;;;4996103;28;20080;-44
2023/07/22 09:32:05;;;;;;;23.98;6.60;;;22.80;58.40;;;;;;4995765;28;20050;-43
2023/07/22 09:34:32;;;;;;;19.88;6.93;;;22.80;58.70;;;;;;4996115;28;20031;-44
2023/07/22 09:37:03;;;;;;;21.45;6.22;;;22.90;58.70;;;;;;4996335;28;20030;-44
2023/07/22 09:39:29;;;;;;;17.83;6.07;;;22.80;59.20;;;;;;4997787;28;20105;-44
2023/07/22 09:41:56;;;;;;;13.85;5.65;;;22.90;58.70;;;;;;4995463;28;20027;-43
2023/07/22 09:44:31;;;;;;;16.70;6.40;;;22.90;58.50;;;;;;4995814;28;20038;-43
2023/07/22 09:46:57;;;;;;;17.88;6.60;;;22.90;59.00;;;;;;4995468;28;20034;-43
2023/07/22 09:49:22;;;;;;;17.75;6.70;;;22.90;59.20;;;;;;4995646;28;20061;-44
2023/07/22 09:51:52;;;;;;;17.05;6.60;;;22.90;58.80;;;;;;4995375;28;20042;-47
2023/07/22 09:54:19;;;;;;;18.30;6.70;;;22.90;59.70;;;;;;4995529;28;20088;-43
2023/07/22 09:56:47;;;;;;;17.35;6.78;;;22.90;59.30;;;;;;4995511;28;20022;-44
2023/07/22 09:59:13;;;;;;;17.67;6.68;;;22.90;58.50;;;;;;4995514;28;20129;-43
2023/07/22 10:01:40;;;;;;;22.13;6.93;;;22.90;58.10;;;;;;4995159;28;20030;-44
2023/07/22 10:04:06;;;;;;;19.02;6.72;;;22.90;58.90;;;;;;4995285;28;20035;-44
2023/07/22 10:06:33;;;;;;;17.08;6.20;;;22.90;59.00;;;;;;4995411;28;20036;-43
2023/07/22 10:09:07;;;;;;;19.10;6.50;;;22.90;58.90;;;;;;4995395;28;20105;-43
2023/07/22 10:11:35;;;;;;;17.23;6.03;;;22.90;59.10;;;;;;5030553;23;20492;-53
2023/07/22 10:14:02;;;;;;;15.57;6.50;;;22.90;59.00;;;;;;5054050;28;20078;-53
2023/07/22 10:16:28;;;;;;;17.05;6.47;;;22.90;58.20;;;;;;5054703;28;20021;-55
2023/07/22 10:18:55;;;;;;;17.92;6.25;;;22.90;58.90;;;;;;5054445;28;20017;-55
2023/07/22 10:21:21;;;;;;;17.90;6.30;;;22.90;58.60;;;;;;5054183;28;20029;-49
2023/07/22 10:23:48;;;;;;;16.77;6.90;;;22.90;58.60;;;;;;5054228;28;20029;-48
2023/07/22 10:26:19;;;;;;;23.33;7.18;;;22.90;59.70;;;;;;5054248;28;20021;-49
2023/07/22 10:28:47;;;;;;;20.45;7.40;;;23.00;59.10;;;;;;5054316;28;20040;-51
2023/07/22 10:31:18;;;;;;;24.75;7.78;;;22.90;58.90;;;;;;5054052;28;20116;-50
2023/07/22 10:33:46;;;;;;;18.90;7.28;;;22.90;59.20;;;;;;5054058;28;20040;-50
2023/07/22 10:36:17;;;;;;;17.15;6.53;;;22.90;59.20;;;;;;5053311;28;20021;-54
2023/07/22 10:38:43;;;;;;;17.02;7.10;;;23.00;59.30;;;;;;5054090;28;20492;-48
2023/07/22 10:41:17;;;;;;;20.42;7.35;;;22.90;59.00;;;;;;5053842;28;20104;-53
2023/07/22 10:43:55;;;;;;;19.30;6.85;;;22.90;59.70;;;;;;5053747;28;20033;-48
2023/07/22 10:46:33;;;;;;;18.42;7.40;;;22.90;59.70;;;;;;5053936;28;20041;-49
2023/07/22 10:49:16;;;;;;;16.38;6.78;;;23.00;59.60;;;;;;5053941;28;20396;-49
2023/07/22 10:51:48;;;;;;;18.13;6.70;;;23.00;59.80;;;;;;5053463;28;20033;-51
2023/07/22 10:54:15;;;;;;;18.35;6.85;;;22.90;59.70;;;;;;5053715;28;20416;-52
2023/07/22 10:56:44;;;;;;;15.85;6.45;;;22.90;59.60;;;;;;5053664;28;20033;-50
2023/07/22 10:59:11;;;;;;;14.93;6.25;;;22.90;58.80;;;;;;5053570;28;20020;-50
2023/07/22 11:01:39;;;;;;;14.98;5.93;;;22.90;59.60;;;;;;5053295;28;20400;-55
2023/07/22 11:04:17;;;;;;;13.90;5.93;;;22.90;59.30;;;;;;5053517;28;20033;-55
2023/07/22 11:06:48;;;;;;;29.25;6.82;;;22.90;59.40;;;;;;5052445;28;20049;-55
2023/07/22 11:09:27;;;;;;;21.20;6.82;;;23.00;58.90;;;;;;5052624;28;20501;-52
2023/07/22 11:11:54;;;;;;;27.90;7.10;;;23.00;58.80;;;;;;5052453;28;20043;-55
2023/07/22 11:14:44;;;;;;;20.25;6.10;;;23.00;58.70;;;;;;5053453;28;20040;-51
2023/07/22 11:17:11;;;;;;;15.40;6.03;;;22.90;56.30;;;;;;5050451;28;20041;-53
2023/07/22 11:19:37;;;;;;;12.27;5.30;;;22.80;54.40;;;;;;5051199;28;20511;-51
2023/07/22 11:22:04;;;;;;;15.10;5.63;;;22.70;53.60;;;;;;5042451;28;20036;-55
2023/07/22 11:24:38;;;;;;;17.85;5.85;;;22.70;53.80;;;;;;5052813;28;20016;-54
2023/07/22 11:27:05;;;;;;;10.82;5.03;;;22.60;52.10;;;;;;5052813;28;20374;-51
2023/07/22 11:29:32;;;;;;;10.40;4.88;;;22.40;50.50;;;;;;5043277;28;20024;-55
2023/07/22 11:31:58;;;;;;;13.60;5.10;;;22.40;51.30;;;;;;5049161;28;20049;-48
2023/07/22 11:34:25;;;;;;;8.93;4.90;;;22.50;51.30;;;;;;5051862;28;20025;-55
2023/07/22 11:36:52;;;;;;;9.75;5.47;;;22.50;51.60;;;;;;5052859;28;20103;-49
2023/07/22 11:39:20;;;;;;;9.38;5.10;;;22.50;51.60;;;;;;5052205;28;20116;-52
2023/07/22 11:41:47;;;;;;;18.40;5.30;;;22.60;51.50;;;;;;5049721;28;20489;-52
2023/07/22 11:44:16;;;;;;;11.13;5.00;;;22.60;51.60;;;;;;5044542;28;20025;-55
2023/07/22 11:47:09;;;;;;;10.55;5.75;;;22.70;52.70;;;;;;5048986;28;20104;-53
2023/07/22 11:49:39;;;;;;;13.20;5.38;;;22.70;53.60;;;;;;5040493;28;20021;-52
2023/07/22 11:52:07;;;;;;;16.10;5.72;;;22.70;53.90;;;;;;5032154;28;20033;-49
2023/07/22 11:54:36;;;;;;;13.80;5.18;;;22.70;54.00;;;;;;5040712;28;20021;-49
2023/07/22 11:57:17;;;;;;;11.68;5.15;;;22.80;54.50;;;;;;5047232;28;20028;-51
2023/07/22 11:59:48;;;;;;;12.55;5.18;;;22.80;54.60;;;;;;5045420;28;20110;-55
2023/07/22 12:02:16;;;;;;;27.17;5.30;;;22.80;54.80;;;;;;5035078;28;20252;-51
2023/07/22 12:04:43;;;;;;;13.52;5.22;;;22.80;54.10;;;;;;5043381;28;20104;-50
2023/07/22 12:07:32;;;;;;;10.85;5.05;;;22.80;54.50;;;;;;5042075;28;20506;-50
2023/07/22 12:10:01;;;;;;;14.95;5.57;;;22.80;54.00;;;;;;5047516;28;20402;-55
2023/07/22 12:12:39;;;;;;;11.02;6.05;;;22.80;54.80;;;;;;5051714;28;20032;-49
2023/07/22 12:15:19;;;;;;;17.75;5.70;;;22.80;55.00;;;;;;5052162;28;20530;-54
2023/07/22 12:17:56;;;;;;;11.60;6.00;;;22.80;55.20;;;;;;5050249;28;20489;-51
2023/07/22 12:20:33;;;;;;;10.20;5.70;;;22.80;54.90;;;;;;5051922;28;20500;-51
2023/07/22 12:22:59;;;;;;;13.85;5.95;;;22.90;55.00;;;;;;5051683;28;20025;-50
2023/07/22 12:25:25;;;;;;;10.18;5.20;;;22.90;55.30;;;;;;5048821;28;20029;-55
2023/07/22 12:27:51;;;;;;;11.68;5.50;;;22.90;55.40;;;;;;5050740;28;20040;-52
2023/07/22 12:30:17;;;;;;;12.02;5.65;;;22.90;54.80;;;;;;5051814;28;20051;-50
2023/07/22 12:32:43;;;;;;;18.70;5.13;;;22.90;55.50;;;;;;5051677;28;20057;-55
2023/07/22 12:35:09;;;;;;;12.82;6.32;;;22.90;55.60;;;;;;5051930;28;20057;-54
2023/07/22 12:37:36;;;;;;;13.50;6.45;;;22.90;56.20;;;;;;5051776;28;20083;-53
2023/07/22 12:40:07;;;;;;;11.57;6.30;;;22.90;56.40;;;;;;5049725;28;20025;-52
2023/07/22 12:42:37;;;;;;;10.23;5.80;;;22.90;56.50;;;;;;5041202;28;20029;-55